Time;durP1;ratioP1;P1;durP2;ratioP2;P2;SDS_P1;SDS_P2;PMS_P1;PMS_P2;Temp;Humidity;BMP_temperature;BMP_pressure;BME280_temperature;BME280_humidity;BME280_pressure;Samples;Min_cycle;Max_cycle;Signal;HPM_P1;HPM_P2
2022/03/11 00:00:18;;;;;;;14.57;9.75;;;4.20;99.90;;;;;;5015518;28;20168;-78
2022/03/11 00:02:43;;;;;;;14.25;9.75;;;4.20;99.90;;;;;;4996946;28;20092;-78
2022/03/11 00:05:12;;;;;;;13.70;9.05;;;4.10;99.90;;;;;;5028775;28;20053;-77
2022/03/11 00:07:45;;;;;;;13.57;9.40;;;4.00;99.90;;;;;;5021857;28;20049;-77
2022/03/11 00:10:11;;;;;;;14.10;9.63;;;4.00;99.90;;;;;;5013938;28;20033;-77
2022/03/11 00:12:37;;;;;;;15.38;8.82;;;4.00;99.90;;;;;;5015793;28;20033;-78
2022/03/11 00:15:05;;;;;;;13.32;9.15;;;4.10;99.90;;;;;;5026948;28;20370;-78
2022/03/11 00:17:31;;;;;;;14.48;9.45;;;4.00;99.90;;;;;;4995052;28;20076;-78
2022/03/11 00:19:57;;;;;;;13.77;9.65;;;3.90;99.90;;;;;;5013593;28;20041;-77
2022/03/11 00:22:22;;;;;;;12.25;8.82;;;3.90;99.90;;;;;;5015868;28;20034;-78
2022/03/11 00:24:48;;;;;;;12.75;8.20;;;3.90;99.90;;;;;;5014941;28;20033;-78
2022/03/11 00:27:16;;;;;;;14.98;9.45;;;3.90;99.90;;;;;;5016636;28;20289;-77
2022/03/11 00:29:44;;;;;;;12.82;8.75;;;3.80;99.90;;;;;;5015529;28;20042;-77
2022/03/11 00:32:10;;;;;;;11.98;8.80;;;3.80;99.90;;;;;;4999597;28;20045;-77
2022/03/11 00:34:35;;;;;;;13.38;9.18;;;3.80;99.90;;;;;;5015502;28;20109;-78
2022/03/11 00:37:04;;;;;;;13.63;8.85;;;3.80;99.90;;;;;;4999536;28;20132;-77
2022/03/11 00:39:30;;;;;;;13.98;8.55;;;3.70;99.90;;;;;;5039968;28;20039;-77
2022/03/11 00:41:55;;;;;;;14.27;8.82;;;3.70;99.90;;;;;;5024827;28;20109;-78
2022/03/11 00:44:21;;;;;;;13.65;8.25;;;3.80;99.90;;;;;;4999953;28;20057;-78
2022/03/11 00:46:47;;;;;;;13.80;8.57;;;3.70;99.90;;;;;;5024560;28;20096;-78
2022/03/11 00:49:12;;;;;;;11.60;7.97;;;3.70;99.90;;;;;;5008865;28;20037;-77
2022/03/11 00:51:38;;;;;;;15.02;9.00;;;3.70;99.90;;;;;;5002982;28;20092;-78
2022/03/11 00:54:07;;;;;;;11.90;8.32;;;3.70;99.90;;;;;;4999120;28;20049;-77
2022/03/11 00:56:33;;;;;;;13.52;9.10;;;3.70;99.90;;;;;;4997735;28;20503;-78
2022/03/11 00:58:59;;;;;;;12.65;8.63;;;3.60;99.90;;;;;;5013938;28;20041;-77
2022/03/11 01:01:25;;;;;;;16.92;9.13;;;3.60;99.90;;;;;;5015441;28;20429;-78
2022/03/11 01:03:50;;;;;;;12.60;7.93;;;3.50;99.90;;;;;;5003689;28;20099;-78
2022/03/11 01:06:16;;;;;;;12.68;8.52;;;3.50;99.90;;;;;;4998379;28;20132;-77
2022/03/11 01:08:42;;;;;;;13.18;8.70;;;3.40;99.90;;;;;;4997344;28;20192;-77
2022/03/11 01:11:11;;;;;;;16.42;8.73;;;3.40;1.00;;;;;;5013175;28;20037;-77
2022/03/11 01:13:40;;;;;;;12.82;8.90;;;3.40;99.90;;;;;;5022750;28;20068;-77
2022/03/11 01:16:06;;;;;;;13.02;8.93;;;3.30;99.90;;;;;;4997626;28;20141;-77
2022/03/11 01:18:32;;;;;;;12.13;8.55;;;3.30;1.00;;;;;;5014072;28;20347;-77
2022/03/11 01:21:00;;;;;;;14.02;8.48;;;3.30;1.00;;;;;;4997522;28;20385;-77
2022/03/11 01:23:26;;;;;;;12.63;8.32;;;3.20;1.00;;;;;;4999361;28;20352;-77
2022/03/11 01:25:52;;;;;;;16.33;9.57;;;3.20;1.00;;;;;;5012686;28;20408;-77
2022/03/11 01:28:17;;;;;;;14.25;9.35;;;3.20;1.00;;;;;;4998581;28;20077;-77
2022/03/11 01:30:43;;;;;;;14.05;8.88;;;3.10;1.00;;;;;;4999257;28;20061;-77
2022/03/11 01:33:09;;;;;;;12.35;8.93;;;3.00;1.00;;;;;;5001786;28;20055;-77
2022/03/11 01:35:37;;;;;;;15.30;8.90;;;3.00;1.00;;;;;;5000829;28;20132;-77
2022/03/11 01:38:03;;;;;;;12.93;9.10;;;3.00;1.00;;;;;;5015290;28;20899;-78
2022/03/11 01:40:31;;;;;;;13.23;9.00;;;2.90;96.80;;;;;;4996567;28;20041;-77
2022/03/11 01:42:57;;;;;;;13.13;8.55;;;2.90;37.60;;;;;;4999893;28;20262;-77
2022/03/11 01:45:23;;;;;;;16.05;8.55;;;2.90;49.90;;;;;;5021695;28;20053;-77
2022/03/11 01:47:48;;;;;;;16.63;9.52;;;3.00;99.90;;;;;;5013908;28;20048;-77
2022/03/11 01:50:14;;;;;;;14.38;8.90;;;2.90;99.90;;;;;;4996977;28;20393;-77
2022/03/11 01:52:40;;;;;;;14.57;9.25;;;2.80;99.90;;;;;;4999699;28;20037;-78
2022/03/11 01:55:06;;;;;;;14.82;9.00;;;2.80;99.90;;;;;;5023834;28;20077;-78
2022/03/11 01:57:34;;;;;;;12.00;8.98;;;2.70;99.90;;;;;;5023981;28;20485;-77
2022/03/11 02:00:10;;;;;;;12.63;9.02;;;2.70;99.90;;;;;;5027672;28;20106;-77
2022/03/11 02:02:35;;;;;;;14.77;9.38;;;2.70;99.90;;;;;;5045128;28;20057;-77
2022/03/11 02:05:01;;;;;;;14.85;10.02;;;2.70;99.90;;;;;;5023239;28;20180;-78
2022/03/11 02:07:28;;;;;;;16.25;9.07;;;2.60;99.90;;;;;;5024614;28;20061;-78
2022/03/11 02:09:55;;;;;;;13.95;10.32;;;2.60;99.90;;;;;;5040046;28;20063;-77
2022/03/11 02:12:32;;;;;;;15.20;9.98;;;2.60;99.90;;;;;;4997363;28;20451;-77
2022/03/11 02:15:00;;;;;;;17.08;10.50;;;2.50;99.90;;;;;;5013283;28;20045;-77
2022/03/11 02:17:26;;;;;;;15.50;10.95;;;2.50;99.90;;;;;;4996769;28;20049;-77
2022/03/11 02:19:51;;;;;;;16.23;10.45;;;2.50;99.90;;;;;;4996982;28;20049;-77
2022/03/11 02:22:24;;;;;;;16.08;10.80;;;2.50;99.90;;;;;;5025607;28;20049;-77
2022/03/11 02:24:51;;;;;;;16.38;10.45;;;2.50;99.90;;;;;;5016869;28;20046;-77
2022/03/11 02:27:17;;;;;;;16.15;10.68;;;2.40;99.90;;;;;;5014953;28;20061;-77
2022/03/11 02:29:43;;;;;;;18.92;11.82;;;2.50;1.00;;;;;;5043211;28;20123;-77
2022/03/11 02:32:09;;;;;;;17.00;11.30;;;2.40;1.00;;;;;;5000476;28;20034;-77
2022/03/11 02:34:37;;;;;;;17.92;11.43;;;2.50;1.00;;;;;;5016853;28;20033;-77
2022/03/11 02:37:04;;;;;;;18.27;12.10;;;2.40;1.00;;;;;;5017219;28;20042;-77
2022/03/11 02:39:29;;;;;;;17.63;11.85;;;2.40;1.00;;;;;;5046220;28;20413;-77
2022/03/11 02:41:55;;;;;;;18.10;12.30;;;2.40;1.00;;;;;;5016986;28;20124;-78
2022/03/11 02:44:22;;;;;;;19.27;12.23;;;2.40;1.00;;;;;;5019558;28;20057;-77
2022/03/11 02:46:48;;;;;;;20.30;12.70;;;2.40;1.00;;;;;;5005055;28;20076;-77
2022/03/11 02:49:14;;;;;;;20.45;13.00;;;2.50;1.00;;;;;;5001519;28;20192;-77
2022/03/11 02:51:40;;;;;;;19.05;12.38;;;2.40;1.00;;;;;;5017785;28;20149;-77
2022/03/11 02:54:05;;;;;;;19.83;12.80;;;2.40;1.00;;;;;;5026233;28;20131;-77
2022/03/11 02:56:31;;;;;;;18.77;13.25;;;2.40;1.00;;;;;;4998970;28;20404;-78
2022/03/11 02:59:02;;;;;;;22.17;13.25;;;2.30;1.00;;;;;;5017604;28;20132;-77
2022/03/11 03:01:28;;;;;;;20.90;13.25;;;2.30;1.00;;;;;;5032748;28;20037;-77
2022/03/11 03:03:56;;;;;;;21.13;14.38;;;2.30;1.00;;;;;;5026083;28;20563;-77
2022/03/11 03:06:21;;;;;;;20.27;13.95;;;2.30;1.00;;;;;;5048591;28;20202;-77
2022/03/11 03:08:50;;;;;;;22.95;14.48;;;2.30;29.10;;;;;;5027586;28;20220;-77
2022/03/11 03:11:15;;;;;;;22.02;14.27;;;2.20;21.50;;;;;;5019160;28;20042;-77
2022/03/11 03:13:43;;;;;;;20.80;14.55;;;2.30;56.10;;;;;;5046253;28;20040;-77
2022/03/11 03:16:09;;;;;;;25.15;14.65;;;2.30;59.90;;;;;;5016059;28;20049;-77
2022/03/11 03:18:34;;;;;;;24.52;15.07;;;2.30;71.20;;;;;;5017148;28;20045;-77
2022/03/11 03:21:15;;;;;;;23.80;15.23;;;2.30;90.40;;;;;;5013703;28;20120;-77
2022/03/11 03:23:43;;;;;;;25.40;14.63;;;2.30;86.60;;;;;;5039600;28;20033;-77
2022/03/11 03:26:09;;;;;;;25.35;16.38;;;2.20;61.40;;;;;;5015505;28;20044;-77
2022/03/11 03:28:35;;;;;;;25.25;15.27;;;2.20;69.70;;;;;;5027986;28;20080;-77
2022/03/11 03:31:01;;;;;;;24.98;16.00;;;2.10;68.20;;;;;;5001214;28;20500;-77
2022/03/11 03:33:27;;;;;;;22.73;14.77;;;2.10;90.50;;;;;;4997950;28;20050;-77
2022/03/11 03:35:53;;;;;;;25.17;16.17;;;2.10;95.20;;;;;;4998487;28;20037;-77
2022/03/11 03:38:18;;;;;;;27.10;17.20;;;2.10;93.30;;;;;;4996653;28;20048;-78
2022/03/11 03:40:47;;;;;;;23.27;15.32;;;2.10;99.90;;;;;;5015756;28;20030;-77
2022/03/11 03:43:13;;;;;;;27.63;18.02;;;2.10;99.90;;;;;;5015243;28;20207;-77
2022/03/11 03:45:42;;;;;;;27.08;17.13;;;2.10;99.90;;;;;;4998295;28;20177;-77
2022/03/11 03:48:07;;;;;;;27.83;18.00;;;2.10;99.90;;;;;;5025663;28;20096;-77
2022/03/11 03:50:33;;;;;;;24.65;16.90;;;2.10;99.90;;;;;;5026740;28;20045;-77
2022/03/11 03:52:59;;;;;;;29.13;18.10;;;2.10;99.90;;;;;;4997866;28;20373;-77
2022/03/11 03:55:25;;;;;;;29.20;17.92;;;2.00;99.90;;;;;;5015663;28;20045;-77
2022/03/11 03:57:50;;;;;;;27.70;18.15;;;2.00;99.90;;;;;;5015996;28;20048;-77
2022/03/11 04:00:16;;;;;;;31.52;18.75;;;2.00;99.90;;;;;;5000949;28;20041;-77
2022/03/11 04:02:49;;;;;;;27.55;18.00;;;2.00;99.90;;;;;;5014089;28;20061;-77
2022/03/11 04:05:19;;;;;;;29.77;18.90;;;2.00;99.90;;;;;;5015594;28;20091;-77
2022/03/11 04:07:48;;;;;;;27.42;18.30;;;2.00;99.90;;;;;;5016198;28;20065;-77
2022/03/11 04:10:15;;;;;;;28.75;18.85;;;1.90;99.90;;;;;;4998283;28;20039;-77
2022/03/11 04:12:44;;;;;;;29.13;17.90;;;2.00;99.90;;;;;;4998400;28;20041;-77
2022/03/11 04:15:11;;;;;;;26.70;18.17;;;1.90;99.90;;;;;;4996330;28;20319;-78
2022/03/11 04:17:37;;;;;;;30.30;18.98;;;1.90;99.90;;;;;;5013456;28;20150;-77
2022/03/11 04:20:04;;;;;;;29.95;18.98;;;1.80;99.90;;;;;;5041217;28;20033;-77
2022/03/11 04:22:30;;;;;;;30.60;19.60;;;1.80;99.90;;;;;;5040184;28;20120;-78
2022/03/11 04:24:56;;;;;;;28.05;18.48;;;1.90;99.90;;;;;;5023785;28;20045;-77
2022/03/11 04:27:22;;;;;;;33.30;19.60;;;1.90;99.90;;;;;;5002976;28;20041;-77
2022/03/11 04:29:48;;;;;;;30.58;20.02;;;1.80;99.90;;;;;;4997214;28;20057;-77
2022/03/11 04:32:19;;;;;;;30.40;20.48;;;1.80;99.90;;;;;;5012658;28;20033;-77
2022/03/11 04:34:45;;;;;;;31.65;20.63;;;1.90;99.90;;;;;;4997207;28;20045;-77
2022/03/11 04:37:11;;;;;;;30.63;19.67;;;1.90;99.90;;;;;;5043029;28;20044;-77
2022/03/11 04:39:39;;;;;;;32.25;20.42;;;1.80;99.90;;;;;;4997052;28;20033;-77
2022/03/11 04:42:09;;;;;;;28.05;18.98;;;1.80;99.90;;;;;;5011160;28;20057;-77
2022/03/11 04:44:37;;;;;;;28.90;18.85;;;1.80;99.90;;;;;;4996338;28;20452;-77
2022/03/11 04:47:06;;;;;;;32.40;20.80;;;1.70;99.90;;;;;;5012303;28;20088;-77
2022/03/11 04:49:32;;;;;;;31.25;19.55;;;1.90;99.90;;;;;;4998479;28;20034;-77
2022/03/11 04:51:58;;;;;;;27.00;19.08;;;1.80;99.90;;;;;;4999498;28;20037;-77
2022/03/11 04:54:24;;;;;;;29.83;19.23;;;1.70;99.90;;;;;;4997049;28;20087;-77
2022/03/11 04:56:50;;;;;;;34.63;20.20;;;1.80;99.90;;;;;;5013664;28;20095;-77
2022/03/11 04:59:21;;;;;;;30.65;20.00;;;1.70;99.90;;;;;;5022135;28;20030;-77
2022/03/11 05:01:50;;;;;;;30.73;19.20;;;1.70;99.90;;;;;;5014510;28;20128;-77
2022/03/11 05:04:15;;;;;;;33.50;20.77;;;1.60;99.90;;;;;;5040209;28;20037;-77
2022/03/11 05:06:44;;;;;;;31.05;20.15;;;1.60;99.90;;;;;;5012931;28;20413;-77
2022/03/11 05:09:12;;;;;;;33.22;19.17;;;1.60;99.90;;;;;;5012327;28;20033;-77
2022/03/11 05:11:38;;;;;;;30.08;19.88;;;1.50;99.90;;;;;;5038476;28;20050;-77
2022/03/11 05:14:07;;;;;;;31.70;19.88;;;1.50;99.90;;;;;;4996286;28;20044;-77
2022/03/11 05:16:36;;;;;;;38.47;19.95;;;1.50;99.90;;;;;;5022244;28;20041;-78
2022/03/11 05:19:02;;;;;;;30.92;20.23;;;1.50;99.90;;;;;;5012690;28;20592;-77
2022/03/11 05:21:27;;;;;;;30.65;19.92;;;1.50;99.90;;;;;;4999295;28;20033;-77
2022/03/11 05:23:53;;;;;;;29.73;19.73;;;1.50;99.90;;;;;;5011945;28;20470;-78
2022/03/11 05:26:25;;;;;;;31.38;20.15;;;1.50;99.90;;;;;;5015632;28;20412;-78
2022/03/11 05:28:55;;;;;;;31.73;19.13;;;1.50;99.90;;;;;;5025360;28;20037;-77
2022/03/11 05:31:33;;;;;;;32.13;19.50;;;1.50;99.90;;;;;;5038410;28;20041;-78
2022/03/11 05:33:59;;;;;;;31.15;18.77;;;1.50;99.90;;;;;;5022525;28;20128;-77
2022/03/11 05:36:25;;;;;;;34.10;19.17;;;1.50;99.90;;;;;;5011565;28;20424;-77
2022/03/11 05:38:51;;;;;;;31.00;20.60;;;1.40;99.90;;;;;;5010688;28;20524;-78
2022/03/11 05:41:22;;;;;;;29.17;17.98;;;1.60;99.90;;;;;;5023904;28;20037;-77
2022/03/11 05:43:48;;;;;;;31.15;18.95;;;1.50;99.90;;;;;;5011826;28;20041;-77
2022/03/11 05:46:14;;;;;;;31.23;19.90;;;1.50;99.90;;;;;;5014167;28;20432;-77
2022/03/11 05:48:40;;;;;;;32.45;19.33;;;1.50;99.90;;;;;;4996511;28;20052;-77
2022/03/11 05:51:07;;;;;;;28.45;19.50;;;1.60;99.90;;;;;;5023435;28;20413;-77
2022/03/11 05:53:36;;;;;;;31.63;19.20;;;1.60;99.90;;;;;;5012078;28;20431;-77
2022/03/11 05:56:05;;;;;;;30.70;19.35;;;1.50;99.90;;;;;;5020012;28;20433;-77
2022/03/11 05:58:32;;;;;;;32.40;20.13;;;1.50;99.90;;;;;;5013542;28;20091;-77
2022/03/11 06:00:58;;;;;;;32.42;20.25;;;1.50;99.90;;;;;;5012039;28;20511;-77
2022/03/11 06:03:24;;;;;;;28.52;18.95;;;1.50;99.90;;;;;;5032800;28;20033;-77
2022/03/11 06:05:50;;;;;;;31.45;20.02;;;1.50;99.90;;;;;;5001590;28;20040;-77
2022/03/11 06:08:16;;;;;;;31.10;20.17;;;1.50;99.90;;;;;;5017339;28;20053;-77
2022/03/11 06:10:42;;;;;;;28.60;19.65;;;1.60;99.90;;;;;;4998777;28;20660;-77
2022/03/11 06:13:08;;;;;;;29.83;19.92;;;1.50;99.90;;;;;;5015067;28;20049;-77
2022/03/11 06:15:34;;;;;;;29.92;20.05;;;1.60;99.90;;;;;;5015571;28;20056;-77
2022/03/11 06:18:02;;;;;;;28.00;18.10;;;1.70;99.90;;;;;;5020540;28;20052;-77
2022/03/11 06:20:32;;;;;;;30.65;19.08;;;1.60;99.90;;;;;;5018702;28;20519;-77
2022/03/11 06:22:58;;;;;;;28.40;18.60;;;1.60;99.90;;;;;;5029195;28;20393;-76
2022/03/11 06:25:24;;;;;;;31.85;19.48;;;1.70;99.90;;;;;;5006423;28;20034;-77
2022/03/11 06:27:52;;;;;;;29.15;18.77;;;1.70;99.90;;;;;;5004531;28;20033;-77
2022/03/11 06:30:18;;;;;;;30.08;19.20;;;1.80;95.60;;;;;;5019461;28;20086;-76
2022/03/11 06:32:46;;;;;;;29.35;19.13;;;1.80;93.10;;;;;;5005487;28;20037;-77
2022/03/11 06:35:15;;;;;;;30.67;19.63;;;1.80;87.30;;;;;;5024805;28;20033;-77
2022/03/11 06:37:45;;;;;;;29.42;19.42;;;1.80;93.50;;;;;;5006456;28;20683;-77
2022/03/11 06:40:12;;;;;;;31.55;18.70;;;1.90;69.40;;;;;;5010516;28;20116;-77
2022/03/11 06:42:40;;;;;;;26.17;18.60;;;1.90;38.70;;;;;;5011625;28;20442;-77
2022/03/11 06:45:07;;;;;;;29.83;18.58;;;2.00;43.00;;;;;;5019727;28;20253;-77
2022/03/11 06:47:33;;;;;;;29.48;18.42;;;2.10;32.50;;;;;;5006626;28;20041;-77
2022/03/11 06:49:59;;;;;;;27.58;17.42;;;2.10;27.90;;;;;;5048958;28;20059;-77
2022/03/11 06:52:25;;;;;;;30.50;18.08;;;2.10;11.70;;;;;;5024169;28;20045;-77
2022/03/11 06:54:53;;;;;;;31.00;18.67;;;2.20;1.00;;;;;;5005731;28;20073;-77
2022/03/11 06:57:20;;;;;;;30.98;19.35;;;2.30;1.00;;;;;;5014441;28;20061;-77
2022/03/11 06:59:48;;;;;;;29.00;17.98;;;2.30;1.00;;;;;;5020863;28;20199;-77
2022/03/11 07:02:17;;;;;;;28.75;18.00;;;2.40;1.00;;;;;;5017772;28;20038;-77
2022/03/11 07:04:50;;;;;;;28.65;18.90;;;2.50;1.00;;;;;;5050333;28;20369;-77
2022/03/11 07:07:16;;;;;;;30.80;18.50;;;2.60;1.00;;;;;;5025727;28;20045;-76
2022/03/11 07:09:47;;;;;;;29.10;18.08;;;2.70;1.00;;;;;;4995970;28;20615;-77
2022/03/11 07:12:18;;;;;;;27.20;18.05;;;2.80;1.00;;;;;;5015707;28;20265;-78
2022/03/11 07:14:45;;;;;;;27.75;18.60;;;2.80;1.00;;;;;;5018964;28;20485;-77
2022/03/11 07:17:11;;;;;;;29.25;18.30;;;2.90;99.90;;;;;;5024156;28;20048;-77
2022/03/11 07:19:39;;;;;;;24.77;16.67;;;2.90;99.90;;;;;;5007111;28;20034;-77
2022/03/11 07:22:05;;;;;;;26.90;16.98;;;3.00;99.90;;;;;;5013855;28;20425;-77
2022/03/11 07:24:31;;;;;;;28.92;17.52;;;3.10;99.90;;;;;;5006306;28;20049;-77
2022/03/11 07:26:57;;;;;;;26.90;17.67;;;3.10;99.90;;;;;;5030903;28;20493;-77
2022/03/11 07:29:24;;;;;;;30.17;17.77;;;3.30;99.90;;;;;;5013348;28;20045;-78
2022/03/11 07:31:50;;;;;;;27.60;18.95;;;3.30;99.90;;;;;;5007919;28;20094;-78
2022/03/11 07:34:23;;;;;;;25.48;17.85;;;3.40;99.90;;;;;;5011139;28;20045;-78
2022/03/11 07:36:52;;;;;;;28.00;18.75;;;3.50;99.90;;;;;;5024196;28;20049;-78
2022/03/11 07:39:18;;;;;;;25.42;16.42;;;3.60;99.90;;;;;;5045164;28;20318;-78
2022/03/11 07:41:48;;;;;;;27.90;18.33;;;3.60;99.90;;;;;;5048919;28;20531;-78
2022/03/11 07:44:17;;;;;;;28.02;18.50;;;3.70;99.90;;;;;;5029796;28;20625;-77
2022/03/11 07:46:44;;;;;;;28.30;17.58;;;3.90;92.60;;;;;;5002425;28;20053;-78
2022/03/11 07:49:10;;;;;;;26.50;17.30;;;3.90;97.50;;;;;;5021314;28;20135;-78
2022/03/11 07:51:37;;;;;;;26.98;17.40;;;4.00;95.10;;;;;;5030662;28;20041;-78
2022/03/11 07:54:03;;;;;;;30.50;17.45;;;4.10;40.30;;;;;;5024330;28;20041;-78
2022/03/11 07:56:32;;;;;;;27.95;17.30;;;4.20;1.00;;;;;;5016504;28;20366;-78
2022/03/11 07:58:58;;;;;;;23.83;16.30;;;4.20;3.60;;;;;;4997858;28;20354;-78
2022/03/11 08:01:24;;;;;;;26.35;17.30;;;4.30;1.00;;;;;;4993148;28;20235;-78
2022/03/11 08:03:50;;;;;;;27.45;18.17;;;4.40;1.00;;;;;;5036484;28;20541;-78
2022/03/11 08:06:16;;;;;;;26.65;17.00;;;4.50;1.00;;;;;;5023634;28;20600;-78
2022/03/11 08:08:43;;;;;;;25.00;16.10;;;4.60;1.00;;;;;;5000769;28;20639;-77
2022/03/11 08:11:09;;;;;;;23.83;16.60;;;4.60;1.00;;;;;;5046022;28;20045;-77
2022/03/11 08:13:35;;;;;;;25.85;16.50;;;4.70;1.00;;;;;;4999081;28;20048;-77
2022/03/11 08:16:02;;;;;;;26.45;17.48;;;4.80;99.90;;;;;;5037145;28;20045;-77
2022/03/11 08:18:28;;;;;;;24.42;17.50;;;4.90;99.90;;;;;;5038074;28;20442;-78
2022/03/11 08:20:54;;;;;;;26.58;16.80;;;5.00;99.90;;;;;;5012853;28;20037;-78
2022/03/11 08:23:22;;;;;;;24.65;16.80;;;5.10;99.90;;;;;;5029841;28;20471;-78
2022/03/11 08:25:51;;;;;;;25.25;17.13;;;5.20;99.90;;;;;;5005953;28;20068;-77
2022/03/11 08:28:23;;;;;;;27.83;16.80;;;5.30;99.90;;;;;;5003273;28;20045;-78
2022/03/11 08:30:50;;;;;;;26.63;18.05;;;5.30;99.90;;;;;;5010187;28;20117;-78
2022/03/11 08:33:22;;;;;;;24.58;16.80;;;5.40;99.90;;;;;;5032021;28;20116;-78
2022/03/11 08:35:49;;;;;;;26.48;16.95;;;5.40;99.90;;;;;;5001471;28;20432;-77
2022/03/11 08:38:15;;;;;;;25.08;16.48;;;5.60;99.90;;;;;;5040686;28;20036;-78
2022/03/11 08:40:46;;;;;;;23.85;17.25;;;5.60;99.90;;;;;;5003838;28;20623;-78
2022/03/11 08:43:15;;;;;;;28.25;17.35;;;5.70;99.90;;;;;;5025144;28;20171;-78
2022/03/11 08:45:43;;;;;;;26.60;17.05;;;5.80;99.90;;;;;;4998050;28;20088;-78
2022/03/11 08:48:08;;;;;;;25.73;17.38;;;5.90;99.90;;;;;;5030177;28;20025;-78
2022/03/11 08:50:34;;;;;;;24.60;16.48;;;6.00;99.90;;;;;;4998541;28;20100;-78
2022/03/11 08:53:06;;;;;;;23.67;15.60;;;6.10;99.90;;;;;;5005752;28;20095;-78
2022/03/11 08:55:32;;;;;;;24.33;16.08;;;6.20;99.90;;;;;;5028198;28;20029;-78
2022/03/11 08:58:00;;;;;;;24.58;17.02;;;6.20;92.20;;;;;;5003549;28;20043;-78
2022/03/11 09:00:28;;;;;;;22.88;15.23;;;6.30;93.10;;;;;;5000090;28;20462;-78
2022/03/11 09:02:54;;;;;;;23.58;16.50;;;6.40;60.50;;;;;;5016948;28;20037;-78
2022/03/11 09:05:20;;;;;;;23.55;16.27;;;6.50;44.70;;;;;;5019640;28;20413;-78
2022/03/11 09:07:51;;;;;;;25.17;16.67;;;6.50;23.50;;;;;;5023802;28;20172;-78
2022/03/11 09:10:18;;;;;;;24.27;16.35;;;6.60;8.80;;;;;;5020102;28;20045;-78
2022/03/11 09:12:47;;;;;;;25.48;17.30;;;6.60;1.00;;;;;;5018141;28;20120;-78
2022/03/11 09:15:13;;;;;;;25.33;16.38;;;6.70;1.00;;;;;;5028316;28;20162;-78
2022/03/11 09:17:44;;;;;;;24.15;16.83;;;6.80;1.00;;;;;;5048851;28;20056;-79
2022/03/11 09:20:13;;;;;;;24.00;16.65;;;6.90;1.00;;;;;;5021548;28;20095;-78
2022/03/11 09:22:41;;;;;;;25.30;17.08;;;6.80;1.00;;;;;;5027344;28;20045;-78
2022/03/11 09:25:07;;;;;;;26.15;17.40;;;7.00;1.00;;;;;;5002888;28;20040;-78
2022/03/11 09:27:39;;;;;;;22.42;16.05;;;7.10;1.00;;;;;;5017423;28;20124;-78
2022/03/11 09:30:14;;;;;;;24.17;16.27;;;7.20;1.00;;;;;;5016465;28;20437;-78
2022/03/11 09:32:43;;;;;;;25.00;16.42;;;7.20;1.00;;;;;;5047249;28;20238;-78
2022/03/11 09:35:09;;;;;;;23.52;16.30;;;7.40;1.00;;;;;;5045682;28;20493;-79
2022/03/11 09:37:46;;;;;;;24.38;17.33;;;7.50;1.00;;;;;;5032724;28;20550;-79
2022/03/11 09:40:16;;;;;;;24.88;17.13;;;7.60;1.00;;;;;;5024185;28;20045;-79
2022/03/11 09:42:42;;;;;;;25.88;17.52;;;7.60;1.00;;;;;;5046915;28;20034;-79
2022/03/11 09:45:11;;;;;;;23.10;16.83;;;7.60;1.00;;;;;;4999691;28;20062;-79
2022/03/11 09:47:42;;;;;;;27.75;17.00;;;7.70;1.00;;;;;;5012123;28;20467;-78
2022/03/11 09:50:08;;;;;;;26.05;17.00;;;7.70;1.00;;;;;;5033783;28;20061;-78
2022/03/11 09:52:35;;;;;;;26.65;17.30;;;7.90;1.00;;;;;;5024394;28;20114;-79
2022/03/11 09:55:00;;;;;;;25.77;17.75;;;8.10;1.00;;;;;;5006831;28;20064;-79
2022/03/11 09:57:29;;;;;;;26.65;16.88;;;8.10;1.00;;;;;;5023827;28;20631;-79
2022/03/11 09:59:54;;;;;;;24.58;16.88;;;8.00;99.90;;;;;;4993188;28;20121;-78
2022/03/11 10:02:23;;;;;;;25.02;16.75;;;8.10;99.90;;;;;;5048885;28;20112;-78
2022/03/11 10:04:51;;;;;;;25.17;17.38;;;8.30;1.00;;;;;;5026132;28;20041;-79
2022/03/11 10:07:30;;;;;;;24.50;17.00;;;8.50;1.00;;;;;;5030738;28;20049;-79
2022/03/11 10:10:03;;;;;;;22.63;16.83;;;8.40;99.90;;;;;;4991121;28;20049;-79
2022/03/11 10:12:31;;;;;;;25.30;16.83;;;8.50;99.90;;;;;;5042082;28;20119;-78
2022/03/11 10:14:58;;;;;;;23.13;16.88;;;8.60;99.90;;;;;;5049054;28;20136;-79
2022/03/11 10:17:23;;;;;;;26.50;16.50;;;8.80;99.90;;;;;;5023119;28;20604;-79
2022/03/11 10:20:00;;;;;;;22.73;17.00;;;8.80;99.90;;;;;;5019437;28;20033;-79
2022/03/11 10:22:26;;;;;;;23.05;17.13;;;8.80;99.90;;;;;;5025279;28;20100;-79
2022/03/11 10:24:56;;;;;;;22.33;16.70;;;9.00;99.90;;;;;;5009312;28;20038;-79
2022/03/11 10:27:28;;;;;;;23.10;16.98;;;9.00;99.90;;;;;;5043595;28;20096;-79
2022/03/11 10:30:14;;;;;;;20.30;15.60;;;9.10;99.90;;;;;;5003426;28;20102;-79
2022/03/11 10:32:52;;;;;;;23.83;16.52;;;9.20;99.90;;;;;;5025168;28;20120;-79
2022/03/11 10:35:21;;;;;;;24.50;16.10;;;9.40;99.90;;;;;;5013436;28;20839;-79
2022/03/11 10:38:17;;;;;;;22.35;17.02;;;9.40;99.90;;;;;;5024996;28;20045;-79
2022/03/11 10:40:57;;;;;;;23.27;15.77;;;9.50;99.90;;;;;;4986432;28;20407;-79
2022/03/11 10:43:31;;;;;;;20.50;16.10;;;9.60;99.90;;;;;;5003646;28;20029;-79
2022/03/11 10:46:03;;;;;;;22.85;16.85;;;9.70;99.90;;;;;;5022425;28;20097;-79
2022/03/11 10:48:42;;;;;;;22.67;16.00;;;9.80;99.90;;;;;;5036392;28;20045;-79
2022/03/11 10:51:33;;;;;;;21.95;15.95;;;9.70;99.90;;;;;;5048201;28;20049;-79
2022/03/11 10:54:07;;;;;;;23.40;16.23;;;9.80;99.90;;;;;;5008833;28;20132;-79
2022/03/11 10:56:39;;;;;;;22.60;16.48;;;10.10;99.90;;;;;;5016447;28;20729;-79
2022/03/11 10:59:28;;;;;;;23.08;15.95;;;10.20;99.90;;;;;;5023981;28;20191;-79
2022/03/11 11:01:58;;;;;;;22.02;16.92;;;10.30;99.90;;;;;;5031269;28;20029;-79
2022/03/11 11:04:25;;;;;;;24.65;16.17;;;10.50;99.90;;;;;;5033105;28;20378;-79
2022/03/11 11:06:51;;;;;;;21.50;15.82;;;10.60;99.90;;;;;;5023316;28;20502;-79
2022/03/11 11:09:23;;;;;;;22.98;15.82;;;10.60;99.90;;;;;;5012011;28;20046;-79
2022/03/11 11:11:51;;;;;;;22.83;16.05;;;10.60;99.90;;;;;;5045412;28;20038;-79
2022/03/11 11:14:17;;;;;;;21.83;16.15;;;10.70;99.90;;;;;;5019486;28;20079;-79
2022/03/11 11:16:45;;;;;;;22.77;16.17;;;10.70;99.90;;;;;;5039218;28;20056;-79
2022/03/11 11:19:13;;;;;;;22.67;15.68;;;10.70;99.90;;;;;;5030156;28;20072;-79
2022/03/11 11:21:52;;;;;;;22.15;15.65;;;10.90;99.90;;;;;;5047084;28;20124;-79
2022/03/11 11:24:30;;;;;;;23.17;15.93;;;11.00;99.90;;;;;;5006599;28;20044;-79
2022/03/11 11:26:57;;;;;;;21.42;15.77;;;11.20;99.90;;;;;;5031361;28;20112;-79
2022/03/11 11:29:36;;;;;;;19.70;14.98;;;11.10;99.90;;;;;;5030735;28;20045;-79
2022/03/11 11:32:11;;;;;;;21.98;14.88;;;11.10;99.90;;;;;;5036811;28;20033;-79
2022/03/11 11:34:40;;;;;;;;;;;11.10;99.90;;;;;;5019937;28;20368;-79
2022/03/11 11:37:37;;;;;;;19.17;15.38;;;11.20;99.90;;;;;;5044788;28;19936;-79
2022/03/11 11:40:24;;;;;;;19.58;14.45;;;11.20;99.90;;;;;;5017117;28;20040;-79
2022/03/11 11:43:12;;;;;;;20.73;15.55;;;11.40;99.90;;;;;;5003194;28;20375;-79
2022/03/11 11:45:48;;;;;;;19.98;14.70;;;11.70;99.90;;;;;;5011208;28;20537;-79
2022/03/11 11:48:32;;;;;;;20.63;15.45;;;11.70;99.90;;;;;;5028191;28;20132;-79
2022/03/11 11:51:01;;;;;;;20.35;15.23;;;11.50;99.90;;;;;;5010602;28;20277;-79
2022/03/11 11:53:40;;;;;;;19.90;15.23;;;11.80;99.90;;;;;;5017295;28;20029;-79
2022/03/11 11:56:28;;;;;;;19.83;14.75;;;11.40;99.90;;;;;;5013864;28;20426;-80
2022/03/11 11:59:02;;;;;;;22.67;15.02;;;11.70;99.90;;;;;;5049475;28;20098;-79
2022/03/11 12:01:45;;;;;;;20.33;14.32;;;11.80;99.90;;;;;;5004863;28;20135;-79
2022/03/11 12:04:27;;;;;;;19.88;14.40;;;12.10;99.90;;;;;;5030933;28;20473;-79
2022/03/11 12:07:05;;;;;;;19.38;14.30;;;12.20;99.90;;;;;;5048477;28;20036;-79
2022/03/11 12:09:48;;;;;;;19.63;15.02;;;12.10;99.90;;;;;;5015604;28;20107;-79
2022/03/11 12:12:39;;;;;;;18.25;14.38;;;12.20;99.90;;;;;;5026613;28;20100;-79
2022/03/11 12:15:08;;;;;;;22.67;15.07;;;12.30;99.90;;;;;;5022170;28;20053;-79
2022/03/11 12:17:59;;;;;;;17.80;14.30;;;12.50;99.90;;;;;;5018927;28;20166;-79
2022/03/11 12:20:45;;;;;;;19.70;14.45;;;12.90;99.90;;;;;;5040732;28;20048;-79
2022/03/11 12:23:12;;;;;;;21.98;14.77;;;12.90;99.90;;;;;;5018117;28;20032;-79
2022/03/11 12:25:58;;;;;;;19.65;14.50;;;12.80;99.90;;;;;;5021716;28;20614;-79
2022/03/11 12:28:34;;;;;;;19.80;14.23;;;13.00;99.90;;;;;;5034349;28;20746;-79
2022/03/11 12:31:23;;;;;;;19.17;14.68;;;12.80;99.90;;;;;;5003622;28;20037;-79
2022/03/11 12:33:50;;;;;;;19.70;14.85;;;12.80;99.90;;;;;;5004643;28;20563;-79
2022/03/11 12:36:21;;;;;;;18.63;14.07;;;13.00;99.90;;;;;;5007481;28;20433;-79
2022/03/11 12:38:49;;;;;;;18.25;13.85;;;13.00;99.90;;;;;;5043649;28;20114;-79
2022/03/11 12:41:24;;;;;;;17.05;13.60;;;13.20;99.90;;;;;;5008028;28;20450;-79
2022/03/11 12:43:50;;;;;;;;;;;13.50;99.90;;;;;;5017747;28;20052;-79
2022/03/11 12:46:15;;;;;;;17.27;13.48;;;13.50;99.90;;;;;;5001883;28;20217;-79
2022/03/11 12:48:46;;;;;;;18.13;13.18;;;13.40;99.90;;;;;;5023698;28;20049;-79